Time,TemperatureF,DewpointF,PressureIn,WindDirection,WindDirectionDegrees,WindSpeedMPH,WindSpeedGustMPH,Humidity,HourlyPrecipIn,Conditions,Clouds,dailyrainin,SolarRadiationWatts/m^2,SoftwareType,DateUTC
2013-02-15 00:02:00,7.0,0.0,-100.00,WNW,302,5.0,6.0,71,0.00,,,0.00,0.000000,,2013-02-15 06:02:00,
2013-02-15 00:32:00,9.0,0.0,-100.00,WNW,303,5.0,8.0,67,0.00,,,0.00,0.000000,,2013-02-15 06:32:00,
2013-02-15 00:42:00,9.0,0.0,-100.00,WNW,303,5.0,8.0,67,0.00,,,0.00,0.000000,,2013-02-15 06:42:00,
2013-02-15 00:52:00,9.0,0.0,-100.00,WNW,303,5.0,8.0,67,0.00,,,0.00,0.000000,,2013-02-15 06:52:00,
2013-02-15 01:01:00,9.0,0.0,-100.00,WNW,303,5.0,8.0,67,0.00,,,0.00,0.000000,,2013-02-15 07:01:00,
2013-02-15 01:21:00,8.0,0.0,-100.00,WNW,282,4.0,6.0,68,0.00,,,0.00,0.000000,,2013-02-15 07:21:00,
2013-02-15 01:32:00,8.0,0.0,-100.00,WNW,282,4.0,6.0,68,0.00,,,0.00,0.000000,,2013-02-15 07:32:00,
2013-02-15 01:42:00,8.0,0.0,-100.00,WNW,282,4.0,6.0,68,0.00,,,0.00,0.000000,,2013-02-15 07:42:00,
2013-02-15 01:52:00,8.0,0.0,-100.00,WNW,282,4.0,6.0,68,0.00,,,0.00,0.000000,,2013-02-15 07:52:00,
2013-02-15 02:01:00,8.0,0.0,-100.00,WNW,282,4.0,6.0,68,0.00,,,0.00,0.000000,,2013-02-15 08:01:00,
2013-02-15 02:21:00,5.0,-1.0,-100.00,NW,315,5.0,7.0,75,0.00,,,0.00,0.000000,,2013-02-15 08:21:00,
2013-02-15 02:32:00,5.0,-1.0,-100.00,NW,315,5.0,7.0,75,0.00,,,0.00,0.000000,,2013-02-15 08:32:00,
2013-02-15 02:42:00,5.0,-1.0,-100.00,NW,315,5.0,7.0,75,0.00,,,0.00,0.000000,,2013-02-15 08:42:00,
2013-02-15 02:53:00,5.0,-1.0,-100.00,NW,315,5.0,7.0,75,0.00,,,0.00,0.000000,,2013-02-15 08:53:00,
2013-02-15 03:01:00,5.0,-1.0,-100.00,NW,315,5.0,7.0,75,0.00,,,0.00,0.000000,,2013-02-15 09:01:00,
2013-02-15 03:22:00,3.0,-3.0,-100.00,NW,311,5.0,7.0,74,0.00,,,0.00,0.000000,,2013-02-15 09:22:00,
2013-02-15 03:32:00,3.0,-3.0,-100.00,NW,311,5.0,7.0,74,0.00,,,0.00,0.000000,,2013-02-15 09:32:00,
2013-02-15 03:42:00,3.0,-3.0,-100.00,NW,311,5.0,7.0,74,0.00,,,0.00,0.000000,,2013-02-15 09:42:00,
2013-02-15 03:52:00,3.0,-3.0,-100.00,NW,311,5.0,7.0,74,0.00,,,0.00,0.000000,,2013-02-15 09:52:00,
2013-02-15 04:01:00,3.0,-3.0,-100.00,NW,311,5.0,7.0,74,0.00,,,0.00,0.000000,,2013-02-15 10:01:00,
2013-02-15 04:32:00,2.0,-4.0,-100.00,NW,314,7.0,11.0,77,0.00,,,0.00,0.000000,,2013-02-15 10:32:00,
2013-02-15 04:42:00,2.0,-4.0,-100.00,NW,314,7.0,11.0,77,0.00,,,0.00,0.000000,,2013-02-15 10:42:00,
2013-02-15 04:52:00,2.0,-4.0,-100.00,NW,314,7.0,11.0,77,0.00,,,0.00,0.000000,,2013-02-15 10:52:00,
2013-02-15 05:01:00,2.0,-4.0,-100.00,NW,314,7.0,11.0,77,0.00,,,0.00,0.000000,,2013-02-15 11:01:00,
2013-02-15 05:32:00,0.0,-5.0,-100.00,NW,305,7.0,10.0,78,0.00,,,0.00,0.000000,,2013-02-15 11:32:00,
2013-02-15 05:42:00,0.0,-5.0,-100.00,NW,305,7.0,10.0,78,0.00,,,0.00,0.000000,,2013-02-15 11:42:00,
2013-02-15 05:52:00,0.0,-5.0,-100.00,NW,305,7.0,10.0,78,0.00,,,0.00,0.000000,,2013-02-15 11:52:00,
2013-02-15 06:02:00,0.0,-5.0,-100.00,NW,305,7.0,10.0,78,0.00,,,0.00,0.000000,,2013-02-15 12:02:00,
2013-02-15 06:22:00,-2.0,-7.0,-100.00,NW,306,6.0,10.0,79,0.00,,,0.00,0.000000,,2013-02-15 12:22:00,
2013-02-15 06:32:00,-2.0,-7.0,-100.00,NW,306,6.0,10.0,79,0.00,,,0.00,0.000000,,2013-02-15 12:32:00,
2013-02-15 06:42:00,-2.0,-7.0,-100.00,NW,306,6.0,10.0,79,0.00,,,0.00,0.000000,,2013-02-15 12:42:00,
2013-02-15 06:52:00,-2.0,-7.0,-100.00,NW,306,6.0,10.0,79,0.00,,,0.00,0.000000,,2013-02-15 12:52:00,
2013-02-15 07:02:00,-2.0,-7.0,-100.00,NW,306,6.0,10.0,79,0.00,,,0.00,0.000000,,2013-02-15 13:02:00,
2013-02-15 07:22:00,-4.0,-9.0,-100.00,NW,304,5.0,8.0,78,0.00,,,-99.99,0.000000,,2013-02-15 13:22:00,
2013-02-15 07:32:00,-4.0,-9.0,-100.00,NW,304,5.0,8.0,78,0.00,,,-99.99,0.000000,,2013-02-15 13:32:00,
2013-02-15 07:42:00,-4.0,-9.0,-100.00,NW,304,5.0,8.0,78,0.00,,,-99.99,0.000000,,2013-02-15 13:42:00,
2013-02-15 07:52:00,-4.0,-9.0,-100.00,NW,304,5.0,8.0,78,0.00,,,-99.99,0.000000,,2013-02-15 13:52:00,
2013-02-15 08:01:00,-4.0,-9.0,-100.00,NW,304,5.0,8.0,78,0.00,,,-99.99,0.000000,,2013-02-15 14:01:00,
2013-02-15 08:32:00,-2.0,-8.0,-100.00,WNW,297,6.0,8.0,75,0.00,,,0.00,35.000000,,2013-02-15 14:32:00,
2013-02-15 08:42:00,-2.0,-8.0,-100.00,WNW,297,6.0,8.0,75,0.00,,,0.00,35.000000,,2013-02-15 14:42:00,
2013-02-15 08:52:00,-2.0,-8.0,-100.00,WNW,297,6.0,8.0,75,0.00,,,0.00,35.000000,,2013-02-15 14:52:00,
2013-02-15 09:01:00,-2.0,-8.0,-100.00,WNW,297,6.0,8.0,75,0.00,,,0.00,35.000000,,2013-02-15 15:01:00,
2013-02-15 09:32:00,2.0,-6.0,-100.00,NW,324,8.0,12.0,70,0.00,,,0.00,197.000000,,2013-02-15 15:32:00,
2013-02-15 09:42:00,2.0,-6.0,-100.00,NW,324,8.0,12.0,70,0.00,,,0.00,197.000000,,2013-02-15 15:42:00,
2013-02-15 09:52:00,2.0,-6.0,-100.00,NW,324,8.0,12.0,70,0.00,,,0.00,197.000000,,2013-02-15 15:52:00,
2013-02-15 10:01:00,2.0,-6.0,-100.00,NW,324,8.0,12.0,70,0.00,,,0.00,197.000000,,2013-02-15 16:01:00,
2013-02-15 10:32:00,6.0,-4.0,-100.00,NNW,328,8.0,15.0,63,0.00,,,0.00,351.000000,,2013-02-15 16:32:00,
2013-02-15 10:43:00,6.0,-4.0,-100.00,NNW,328,8.0,15.0,63,0.00,,,0.00,351.000000,,2013-02-15 16:43:00,
2013-02-15 10:52:00,6.0,-4.0,-100.00,NNW,328,8.0,15.0,63,0.00,,,0.00,351.000000,,2013-02-15 16:52:00,
2013-02-15 11:01:00,6.0,-4.0,-100.00,NNW,328,8.0,15.0,63,0.00,,,0.00,351.000000,,2013-02-15 17:01:00,
2013-02-15 11:32:00,8.0,-5.0,-100.00,NW,322,10.0,16.0,55,0.00,,,0.00,478.000000,,2013-02-15 17:32:00,
2013-02-15 11:42:00,8.0,-5.0,-100.00,NW,322,10.0,16.0,55,0.00,,,0.00,478.000000,,2013-02-15 17:42:00,
2013-02-15 11:52:00,8.0,-5.0,-100.00,NW,322,10.0,16.0,55,0.00,,,0.00,478.000000,,2013-02-15 17:52:00,
2013-02-15 12:01:00,8.0,-5.0,-100.00,NW,322,10.0,16.0,55,0.00,,,0.00,478.000000,,2013-02-15 18:01:00,
2013-02-15 12:32:00,9.0,-6.0,-100.00,NW,309,11.0,19.0,50,0.00,,,-99.99,492.000000,,2013-02-15 18:32:00,
2013-02-15 12:42:00,9.0,-6.0,-100.00,NW,309,11.0,19.0,50,0.00,,,-99.99,492.000000,,2013-02-15 18:42:00,
2013-02-15 12:53:00,9.0,-6.0,-100.00,NW,309,11.0,19.0,50,0.00,,,-99.99,492.000000,,2013-02-15 18:53:00,
2013-02-15 13:01:00,9.0,-6.0,-100.00,NW,309,11.0,19.0,50,0.00,,,-99.99,492.000000,,2013-02-15 19:01:00,
2013-02-15 13:32:00,12.0,-4.0,-100.00,NW,308,9.0,15.0,48,0.00,,,0.00,462.000000,,2013-02-15 19:32:00,
2013-02-15 13:42:00,12.0,-4.0,-100.00,NW,308,9.0,15.0,48,0.00,,,0.00,462.000000,,2013-02-15 19:42:00,
2013-02-15 13:52:00,12.0,-4.0,-100.00,NW,308,9.0,15.0,48,0.00,,,0.00,462.000000,,2013-02-15 19:52:00,
2013-02-15 14:01:00,12.0,-4.0,-100.00,NW,308,9.0,15.0,48,0.00,,,0.00,462.000000,,2013-02-15 20:01:00,
2013-02-15 14:22:00,12.0,-4.0,-100.00,WNW,294,10.0,19.0,48,0.00,,,0.00,455.000000,,2013-02-15 20:22:00,
2013-02-15 14:32:00,12.0,-4.0,-100.00,WNW,294,10.0,19.0,48,0.00,,,0.00,455.000000,,2013-02-15 20:32:00,
2013-02-15 14:42:00,12.0,-4.0,-100.00,WNW,294,10.0,19.0,48,0.00,,,0.00,455.000000,,2013-02-15 20:42:00,
2013-02-15 14:52:00,12.0,-4.0,-100.00,WNW,294,10.0,19.0,48,0.00,,,0.00,455.000000,,2013-02-15 20:52:00,
2013-02-15 15:01:00,12.0,-4.0,-100.00,WNW,294,10.0,19.0,48,0.00,,,0.00,455.000000,,2013-02-15 21:01:00,
2013-02-15 15:32:00,12.0,-3.0,-100.00,NW,324,10.0,17.0,49,0.00,,,0.00,380.000000,,2013-02-15 21:32:00,
2013-02-15 15:42:00,12.0,-3.0,-100.00,NW,324,10.0,17.0,49,0.00,,,0.00,380.000000,,2013-02-15 21:42:00,
2013-02-15 15:52:00,12.0,-3.0,-100.00,NW,324,10.0,17.0,49,0.00,,,0.00,380.000000,,2013-02-15 21:52:00,
2013-02-15 16:02:00,12.0,-3.0,-100.00,NW,324,10.0,17.0,49,0.00,,,0.00,380.000000,,2013-02-15 22:02:00,
2013-02-15 16:32:00,8.0,-6.0,-100.00,NNW,331,11.0,18.0,53,0.00,,,0.00,167.000000,,2013-02-15 22:32:00,
2013-02-15 16:42:00,8.0,-6.0,-100.00,NNW,331,11.0,18.0,53,0.00,,,0.00,167.000000,,2013-02-15 22:42:00,
2013-02-15 16:52:00,8.0,-6.0,-100.00,NNW,331,11.0,18.0,53,0.00,,,0.00,167.000000,,2013-02-15 22:52:00,
2013-02-15 17:02:00,8.0,-6.0,-100.00,NNW,331,11.0,18.0,53,0.00,,,0.00,167.000000,,2013-02-15 23:02:00,
2013-02-15 17:32:00,7.0,-6.0,-100.00,NW,313,8.0,17.0,53,0.00,,,0.00,64.000000,,2013-02-15 23:32:00,
2013-02-15 17:42:00,7.0,-6.0,-100.00,NW,313,8.0,17.0,53,0.00,,,0.00,64.000000,,2013-02-15 23:42:00,
2013-02-15 17:52:00,7.0,-6.0,-100.00,NW,313,8.0,17.0,53,0.00,,,0.00,64.000000,,2013-02-15 23:52:00,
2013-02-15 18:02:00,7.0,-6.0,-100.00,NW,313,8.0,17.0,53,0.00,,,0.00,64.000000,,2013-02-16 00:02:00,
2013-02-15 18:22:00,3.0,-8.0,-100.00,NW,307,4.0,12.0,58,0.00,,,0.00,7.000000,,2013-02-16 00:22:00,
2013-02-15 18:32:00,3.0,-8.0,-100.00,NW,307,4.0,12.0,58,0.00,,,0.00,7.000000,,2013-02-16 00:32:00,
2013-02-15 18:42:00,3.0,-8.0,-100.00,NW,307,4.0,12.0,58,0.00,,,0.00,7.000000,,2013-02-16 00:42:00,
2013-02-15 18:52:00,3.0,-8.0,-100.00,NW,307,4.0,12.0,58,0.00,,,0.00,7.000000,,2013-02-16 00:52:00,
2013-02-15 19:02:00,3.0,-8.0,-100.00,NW,307,4.0,12.0,58,0.00,,,0.00,7.000000,,2013-02-16 01:02:00,
2013-02-15 19:32:00,0.0,-9.0,-100.00,WNW,302,5.0,7.0,66,0.00,,,0.00,0.000000,,2013-02-16 01:32:00,
2013-02-15 19:42:00,0.0,-9.0,-100.00,WNW,302,5.0,7.0,66,0.00,,,0.00,0.000000,,2013-02-16 01:42:00,
2013-02-15 19:52:00,0.0,-9.0,-100.00,WNW,302,5.0,7.0,66,0.00,,,0.00,0.000000,,2013-02-16 01:52:00,
2013-02-15 20:01:00,0.0,-9.0,-100.00,WNW,302,5.0,7.0,66,0.00,,,0.00,0.000000,,2013-02-16 02:01:00,
2013-02-15 20:22:00,-5.0,-11.0,-100.00,WNW,285,3.0,5.0,73,0.00,,,0.00,0.000000,,2013-02-16 02:22:00,
2013-02-15 20:32:00,-5.0,-11.0,-100.00,WNW,285,3.0,5.0,73,0.00,,,0.00,0.000000,,2013-02-16 02:32:00,
2013-02-15 20:42:00,-5.0,-11.0,-100.00,WNW,285,3.0,5.0,73,0.00,,,0.00,0.000000,,2013-02-16 02:42:00,
2013-02-15 20:52:00,-5.0,-11.0,-100.00,WNW,285,3.0,5.0,73,0.00,,,0.00,0.000000,,2013-02-16 02:52:00,
2013-02-15 21:01:00,-5.0,-11.0,-100.00,WNW,285,3.0,5.0,73,0.00,,,0.00,0.000000,,2013-02-16 03:01:00,
2013-02-15 21:32:00,-10.0,-16.0,-100.00,SSW,201,1.0,2.0,73,0.00,,,0.00,0.000000,,2013-02-16 03:32:00,
2013-02-15 21:42:00,-10.0,-16.0,-100.00,SSW,201,1.0,2.0,73,0.00,,,0.00,0.000000,,2013-02-16 03:42:00,
2013-02-15 21:52:00,-10.0,-16.0,-100.00,SSW,201,1.0,2.0,73,0.00,,,0.00,0.000000,,2013-02-16 03:52:00,
2013-02-15 22:01:00,-10.0,-16.0,-100.00,SSW,201,1.0,2.0,73,0.00,,,0.00,0.000000,,2013-02-16 04:01:00,
2013-02-15 22:32:00,-14.0,-21.0,-100.00,SSW,204,1.0,2.0,71,0.00,,,0.00,0.000000,,2013-02-16 04:32:00,
2013-02-15 23:01:00,-14.0,-21.0,-100.00,SSW,204,1.0,2.0,71,0.00,,,0.00,0.000000,,2013-02-16 05:01:00,
2013-02-15 23:32:00,-17.0,-24.0,-100.00,SW,216,0.0,2.0,68,0.00,,,0.00,0.000000,,2013-02-16 05:32:00,